createdAt,value
2017-07-23T00:00:00.056Z,0
2017-07-23T00:01:00.637Z,0
2017-07-23T00:02:01.210Z,0
2017-07-23T00:03:01.798Z,0
2017-07-23T00:04:02.378Z,0
2017-07-23T00:05:02.952Z,0
2017-07-23T00:06:03.531Z,0
2017-07-23T00:07:04.107Z,0
2017-07-23T00:08:04.684Z,0
2017-07-23T00:09:05.260Z,0
2017-07-23T00:10:05.849Z,0
2017-07-23T00:11:06.428Z,0
2017-07-23T00:12:07.004Z,0
2017-07-23T00:13:07.581Z,0
2017-07-23T00:14:08.158Z,0
2017-07-23T00:15:08.733Z,0
2017-07-23T00:16:09.310Z,0
2017-07-23T00:17:09.887Z,0
2017-07-23T00:18:10.463Z,0
2017-07-23T00:19:11.039Z,0
2017-07-23T00:20:11.618Z,0
2017-07-23T00:21:12.193Z,0
2017-07-23T00:22:12.771Z,0
2017-07-23T00:23:13.350Z,0
2017-07-23T00:24:13.927Z,0
2017-07-23T00:25:14.516Z,0
2017-07-23T00:26:15.092Z,0
2017-07-23T00:27:15.667Z,0
2017-07-23T00:28:16.256Z,0
2017-07-23T00:29:16.838Z,0
2017-07-23T00:30:17.408Z,0
2017-07-23T00:31:17.985Z,0
2017-07-23T00:32:18.562Z,0
2017-07-23T00:33:19.139Z,0
2017-07-23T00:34:19.715Z,0
2017-07-23T00:35:20.290Z,0
2017-07-23T00:36:20.867Z,0
2017-07-23T00:37:21.455Z,0
2017-07-23T00:38:22.034Z,0
2017-07-23T00:39:22.624Z,0
2017-07-23T00:40:23.201Z,0
2017-07-23T00:41:23.778Z,0
2017-07-23T00:42:24.354Z,0
2017-07-23T00:43:24.930Z,0
2017-07-23T00:44:25.506Z,0
2017-07-23T00:45:26.084Z,0
2017-07-23T00:46:26.660Z,0
2017-07-23T00:47:27.238Z,0
2017-07-23T00:48:27.813Z,0
2017-07-23T00:49:28.389Z,0
2017-07-23T00:50:28.966Z,0
2017-07-23T00:51:29.541Z,0
2017-07-23T00:52:30.116Z,0
2017-07-23T00:53:30.692Z,0
2017-07-23T00:54:31.269Z,0
2017-07-23T00:55:31.844Z,0
2017-07-23T00:56:32.421Z,0
2017-07-23T00:57:32.998Z,0
2017-07-23T00:58:33.575Z,0
2017-07-23T00:59:34.152Z,0
2017-07-23T01:00:34.729Z,0
2017-07-23T01:01:35.306Z,0
2017-07-23T01:02:35.890Z,0
2017-07-23T01:03:42.730Z,0
2017-07-23T01:04:43.308Z,0
2017-07-23T01:05:43.882Z,0
2017-07-23T01:06:44.460Z,0
2017-07-23T01:07:45.035Z,0
2017-07-23T01:08:45.612Z,0
2017-07-23T01:09:46.198Z,0
2017-07-23T01:10:46.774Z,0
2017-07-23T01:11:47.350Z,0
2017-07-23T01:12:47.925Z,0
2017-07-23T01:13:48.502Z,0
2017-07-23T01:14:49.078Z,0
2017-07-23T01:15:49.655Z,0
2017-07-23T01:16:50.231Z,0
2017-07-23T01:17:50.816Z,0
2017-07-23T01:18:51.390Z,0
2017-07-23T01:19:51.964Z,0
2017-07-23T01:20:52.540Z,0
2017-07-23T01:21:53.115Z,0
2017-07-23T01:22:53.688Z,0
2017-07-23T01:23:54.265Z,0
2017-07-23T01:24:54.841Z,0
2017-07-23T01:25:55.416Z,0
2017-07-23T01:26:55.992Z,0
2017-07-23T01:27:56.567Z,0
2017-07-23T01:28:57.141Z,0
2017-07-23T01:29:57.717Z,0
2017-07-23T01:30:58.292Z,0
2017-07-23T01:31:58.868Z,0
2017-07-23T01:32:59.442Z,0
2017-07-23T01:34:00.018Z,0
2017-07-23T01:35:00.594Z,0
2017-07-23T01:36:01.167Z,0
2017-07-23T01:37:01.743Z,0
2017-07-23T01:38:02.316Z,0
2017-07-23T01:39:02.890Z,0
2017-07-23T01:40:03.465Z,0
2017-07-23T01:41:04.053Z,0
2017-07-23T01:42:04.628Z,0
2017-07-23T01:43:05.205Z,0
2017-07-23T01:44:05.781Z,0
2017-07-23T01:45:06.359Z,0
2017-07-23T01:46:06.932Z,0
2017-07-23T01:47:07.512Z,0
2017-07-23T01:48:08.094Z,0
2017-07-23T01:49:08.669Z,0
2017-07-23T01:50:09.244Z,0
2017-07-23T01:51:09.818Z,0
2017-07-23T01:52:10.393Z,0
2017-07-23T01:53:10.966Z,0
2017-07-23T01:54:11.540Z,0
2017-07-23T01:55:12.117Z,0
2017-07-23T01:56:12.690Z,0
2017-07-23T01:57:13.265Z,0
2017-07-23T01:58:13.839Z,0
2017-07-23T01:59:14.414Z,0
2017-07-23T02:00:14.988Z,0
2017-07-23T02:01:15.565Z,0
2017-07-23T02:02:16.139Z,0
2017-07-23T02:03:16.715Z,0
2017-07-23T02:04:17.289Z,0
2017-07-23T02:05:17.864Z,0
2017-07-23T02:06:18.438Z,0
2017-07-23T02:07:19.015Z,0
2017-07-23T02:08:19.588Z,0
2017-07-23T02:09:20.163Z,0
2017-07-23T02:10:20.739Z,0
2017-07-23T02:11:21.313Z,0
2017-07-23T02:12:21.886Z,0
2017-07-23T02:13:22.461Z,0
2017-07-23T02:14:23.036Z,0
2017-07-23T02:15:23.613Z,0
2017-07-23T02:16:24.188Z,0
2017-07-23T02:17:24.774Z,0
2017-07-23T02:18:25.351Z,0
2017-07-23T02:19:25.925Z,0
2017-07-23T02:20:26.502Z,0
2017-07-23T02:21:27.078Z,0
2017-07-23T02:22:27.655Z,0
2017-07-23T02:23:28.231Z,0
2017-07-23T02:24:28.810Z,0
2017-07-23T02:25:29.393Z,0
2017-07-23T02:26:29.968Z,0
2017-07-23T02:27:30.541Z,0
2017-07-23T02:28:31.116Z,0
2017-07-23T02:29:31.691Z,0
2017-07-23T02:30:32.270Z,0
2017-07-23T02:31:32.852Z,0
2017-07-23T02:32:33.426Z,0
2017-07-23T02:33:34.003Z,0
2017-07-23T02:34:34.584Z,0
2017-07-23T02:35:35.155Z,0
2017-07-23T02:36:35.728Z,0
2017-07-23T02:37:36.304Z,0
2017-07-23T02:38:36.878Z,0
2017-07-23T02:39:37.454Z,0
2017-07-23T02:40:38.029Z,0
2017-07-23T02:41:38.607Z,0
2017-07-23T02:42:39.180Z,0
2017-07-23T02:43:39.767Z,0
2017-07-23T02:44:40.343Z,0
2017-07-23T02:45:40.921Z,0
2017-07-23T02:46:41.494Z,0
2017-07-23T02:47:42.071Z,0
2017-07-23T02:48:42.647Z,0
2017-07-23T02:49:43.222Z,0
2017-07-23T02:50:43.811Z,0
2017-07-23T02:51:44.395Z,0
2017-07-23T02:52:44.969Z,0
2017-07-23T02:53:45.547Z,0
2017-07-23T02:54:46.121Z,0
2017-07-23T02:55:46.696Z,0
2017-07-23T02:56:47.270Z,0
2017-07-23T02:57:47.845Z,0
2017-07-23T02:58:48.420Z,0
2017-07-23T02:59:48.996Z,0
2017-07-23T03:00:49.583Z,0
2017-07-23T03:01:50.159Z,0
2017-07-23T03:02:50.745Z,0
2017-07-23T03:03:51.319Z,0
2017-07-23T03:04:51.892Z,0
2017-07-23T03:05:52.467Z,0
2017-07-23T03:06:53.048Z,0
2017-07-23T03:07:53.618Z,0
2017-07-23T03:08:54.206Z,0
2017-07-23T03:09:54.782Z,0
2017-07-23T03:10:55.369Z,0
2017-07-23T03:11:55.943Z,0
2017-07-23T03:12:56.516Z,0
2017-07-23T03:13:57.091Z,0
2017-07-23T03:14:57.666Z,0
2017-07-23T03:15:58.239Z,0
2017-07-23T03:16:58.814Z,0
2017-07-23T03:17:59.390Z,0
2017-07-23T03:18:59.975Z,0
2017-07-23T03:20:00.561Z,0
2017-07-23T03:21:01.136Z,0
2017-07-23T03:22:01.712Z,0
2017-07-23T03:23:02.284Z,4
2017-07-23T03:24:02.859Z,4
2017-07-23T03:25:03.433Z,0
2017-07-23T03:26:04.008Z,0
2017-07-23T03:27:04.584Z,4
2017-07-23T03:28:05.158Z,4
2017-07-23T03:29:05.732Z,4
2017-07-23T03:30:06.306Z,4
2017-07-23T03:31:06.880Z,0
2017-07-23T03:32:07.454Z,0
2017-07-23T03:33:08.037Z,4
2017-07-23T03:34:08.604Z,4
2017-07-23T03:35:09.180Z,4
2017-07-23T03:36:09.754Z,0
2017-07-23T03:37:10.329Z,4
2017-07-23T03:38:10.904Z,4
2017-07-23T03:39:11.480Z,4
2017-07-23T03:40:12.058Z,4
2017-07-23T03:41:12.628Z,4
2017-07-23T03:42:13.203Z,4
2017-07-23T03:43:13.778Z,4
2017-07-23T03:44:14.353Z,4
2017-07-23T03:45:14.929Z,4
2017-07-23T03:46:15.514Z,4
2017-07-23T03:47:16.090Z,4
2017-07-23T03:48:16.667Z,4
2017-07-23T03:49:17.240Z,4
2017-07-23T03:50:17.826Z,4
2017-07-23T03:51:18.399Z,8
2017-07-23T03:52:18.987Z,4
2017-07-23T03:53:19.562Z,8
2017-07-23T03:54:20.135Z,8
2017-07-23T03:55:20.712Z,12
2017-07-23T03:56:21.288Z,16
2017-07-23T03:57:21.865Z,16
2017-07-23T03:58:22.440Z,16
2017-07-23T03:59:23.018Z,20
2017-07-23T04:00:23.604Z,16
2017-07-23T04:01:24.181Z,20
2017-07-23T04:02:24.763Z,16
2017-07-23T04:03:25.345Z,12
2017-07-23T04:04:25.921Z,20
2017-07-23T04:05:26.497Z,16
2017-07-23T04:06:27.074Z,20
2017-07-23T04:07:27.653Z,20
2017-07-23T04:08:28.226Z,28
2017-07-23T04:09:28.806Z,28
2017-07-23T04:10:29.379Z,28
2017-07-23T04:11:29.956Z,24
2017-07-23T04:12:30.530Z,20
2017-07-23T04:13:31.107Z,20
2017-07-23T04:14:31.683Z,16
2017-07-23T04:15:32.267Z,16
2017-07-23T04:16:32.834Z,12
2017-07-23T04:17:33.415Z,12
2017-07-23T04:18:33.985Z,12
2017-07-23T04:19:34.559Z,12
2017-07-23T04:20:35.135Z,12
2017-07-23T04:21:35.711Z,12
2017-07-23T04:22:36.289Z,12
2017-07-23T04:23:36.878Z,12
2017-07-23T04:24:37.455Z,16
2017-07-23T04:25:38.029Z,16
2017-07-23T04:26:38.603Z,12
2017-07-23T04:27:39.184Z,12
2017-07-23T04:28:39.757Z,16
2017-07-23T04:29:40.334Z,16
2017-07-23T04:30:40.911Z,16
2017-07-23T04:31:41.489Z,12
2017-07-23T04:32:42.063Z,12
2017-07-23T04:33:42.640Z,12
2017-07-23T04:34:43.214Z,12
2017-07-23T04:35:43.790Z,12
2017-07-23T04:36:44.365Z,12
2017-07-23T04:37:44.940Z,12
2017-07-23T04:38:45.515Z,12
2017-07-23T04:39:46.091Z,12
2017-07-23T04:40:46.667Z,12
2017-07-23T04:41:47.242Z,12
2017-07-23T04:42:47.819Z,12
2017-07-23T04:43:48.393Z,12
2017-07-23T04:44:48.982Z,16
2017-07-23T04:45:49.556Z,16
2017-07-23T04:46:50.132Z,20
2017-07-23T04:47:50.709Z,20
2017-07-23T04:48:51.283Z,20
2017-07-23T04:49:51.859Z,20
2017-07-23T04:50:52.434Z,24
2017-07-23T04:51:53.010Z,28
2017-07-23T04:52:53.584Z,28
2017-07-23T04:53:54.160Z,32
2017-07-23T04:54:54.736Z,36
2017-07-23T04:55:55.314Z,44
2017-07-23T04:56:55.889Z,48
2017-07-23T04:57:56.466Z,56
2017-07-23T04:58:57.040Z,60
2017-07-23T04:59:57.618Z,68
2017-07-23T05:00:58.192Z,76
2017-07-23T05:01:58.768Z,80
2017-07-23T05:02:59.344Z,84
2017-07-23T05:03:59.920Z,88
2017-07-23T05:05:00.494Z,96
2017-07-23T05:06:01.070Z,96
2017-07-23T05:07:01.646Z,104
2017-07-23T05:08:02.223Z,112
2017-07-23T05:09:02.815Z,116
2017-07-23T05:10:03.388Z,120
2017-07-23T05:11:03.963Z,132
2017-07-23T05:12:04.539Z,136
2017-07-23T05:13:05.115Z,144
2017-07-23T05:14:05.709Z,152
2017-07-23T05:15:06.294Z,160
2017-07-23T05:16:06.871Z,168
2017-07-23T05:17:07.447Z,180
2017-07-23T05:18:08.025Z,184
2017-07-23T05:19:08.601Z,188
2017-07-23T05:20:09.178Z,192
2017-07-23T05:21:09.766Z,196
2017-07-23T05:22:10.355Z,204
2017-07-23T05:23:10.943Z,208
2017-07-23T05:24:11.520Z,212
2017-07-23T05:25:12.108Z,220
2017-07-23T05:26:12.686Z,220
2017-07-23T05:27:13.261Z,220
2017-07-23T05:28:13.839Z,224
2017-07-23T05:29:14.426Z,228
2017-07-23T05:30:15.003Z,236
2017-07-23T05:31:15.579Z,244
2017-07-23T05:32:16.169Z,244
2017-07-23T05:33:16.746Z,256
2017-07-23T05:34:17.325Z,360
2017-07-23T05:35:17.902Z,328
2017-07-23T05:36:18.481Z,280
2017-07-23T05:37:19.059Z,304
2017-07-23T05:38:19.636Z,316
2017-07-23T05:39:20.215Z,416
2017-07-23T05:40:20.792Z,420
2017-07-23T05:41:21.374Z,292
2017-07-23T05:42:21.946Z,400
2017-07-23T05:43:22.525Z,428
2017-07-23T05:44:23.105Z,428
2017-07-23T05:45:23.680Z,328
2017-07-23T05:46:24.258Z,336
2017-07-23T05:47:24.834Z,444
2017-07-23T05:48:25.411Z,408
2017-07-23T05:49:25.989Z,460
2017-07-23T05:50:26.567Z,464
2017-07-23T05:51:27.146Z,464
2017-07-23T05:52:27.722Z,472
2017-07-23T05:53:28.302Z,376
2017-07-23T05:54:28.879Z,500
2017-07-23T05:55:29.455Z,508
2017-07-23T05:56:30.034Z,368
2017-07-23T05:57:30.612Z,352
2017-07-23T05:58:31.192Z,396
2017-07-23T05:59:31.768Z,356
2017-07-23T06:00:32.346Z,372
2017-07-23T06:01:32.936Z,452
2017-07-23T06:02:33.512Z,572
2017-07-23T06:03:34.089Z,468
2017-07-23T06:04:34.677Z,404
2017-07-23T06:05:35.254Z,416
2017-07-23T06:06:35.834Z,480
2017-07-23T06:07:36.423Z,584
2017-07-23T06:08:37.021Z,576
2017-07-23T06:09:37.577Z,576
2017-07-23T06:10:38.155Z,392
2017-07-23T06:11:38.733Z,380
2017-07-23T06:12:39.320Z,380
2017-07-23T06:13:39.901Z,384
2017-07-23T06:14:40.480Z,396
2017-07-23T06:15:41.060Z,412
2017-07-23T06:16:41.637Z,472
2017-07-23T06:17:42.216Z,476
2017-07-23T06:18:42.795Z,464
2017-07-23T06:19:43.371Z,468
2017-07-23T06:20:43.951Z,512
2017-07-23T06:21:44.527Z,668
2017-07-23T06:22:45.109Z,620
2017-07-23T06:23:45.683Z,476
2017-07-23T06:24:46.260Z,460
2017-07-23T06:25:46.840Z,444
2017-07-23T06:26:47.419Z,480
2017-07-23T06:27:47.998Z,652
2017-07-23T06:28:48.577Z,588
2017-07-23T06:29:49.158Z,540
2017-07-23T06:30:49.731Z,684
2017-07-23T06:31:50.309Z,748
2017-07-23T06:32:50.887Z,640
2017-07-23T06:33:51.464Z,672
2017-07-23T06:34:52.041Z,508
2017-07-23T06:35:52.620Z,652
2017-07-23T06:36:53.197Z,440
2017-07-23T06:37:53.778Z,448
2017-07-23T06:38:54.360Z,492
2017-07-23T06:39:54.934Z,536
2017-07-23T06:40:55.511Z,584
2017-07-23T06:41:56.100Z,728
2017-07-23T06:42:56.679Z,568
2017-07-23T06:43:57.256Z,524
2017-07-23T06:44:57.837Z,600
2017-07-23T06:45:58.422Z,568
2017-07-23T06:46:58.998Z,720
2017-07-23T06:47:59.576Z,612
2017-07-23T06:49:00.153Z,860
2017-07-23T06:50:00.729Z,644
2017-07-23T06:51:01.309Z,696
2017-07-23T06:52:01.901Z,896
2017-07-23T06:53:02.478Z,908
2017-07-23T06:54:03.058Z,916
2017-07-23T06:55:03.636Z,928
2017-07-23T06:56:04.215Z,940
2017-07-23T06:57:04.792Z,948
2017-07-23T06:58:05.368Z,928
2017-07-23T06:59:05.948Z,988
2017-07-23T07:00:06.528Z,1004
2017-07-23T07:01:07.108Z,1016
2017-07-23T07:02:07.688Z,1024
2017-07-23T07:03:08.267Z,800
2017-07-23T07:04:08.846Z,1052
2017-07-23T07:05:09.426Z,1040
2017-07-23T07:06:10.005Z,1044
2017-07-23T07:07:10.596Z,1084
2017-07-23T07:08:11.187Z,1076
2017-07-23T07:09:11.766Z,1080
2017-07-23T07:10:12.346Z,1080
2017-07-23T07:11:12.925Z,1068
2017-07-23T07:12:13.504Z,1044
2017-07-23T07:13:14.085Z,1044
2017-07-23T07:14:14.675Z,1020
2017-07-23T07:15:15.254Z,1000
2017-07-23T07:16:15.847Z,1012
2017-07-23T07:17:16.426Z,1020
2017-07-23T07:18:17.003Z,952
2017-07-23T07:19:17.583Z,884
2017-07-23T07:20:18.160Z,744
2017-07-23T07:21:18.738Z,732
2017-07-23T07:22:19.317Z,764
2017-07-23T07:23:19.896Z,684
2017-07-23T07:24:20.477Z,912
2017-07-23T07:25:21.052Z,872
2017-07-23T07:26:21.631Z,928
2017-07-23T07:27:22.210Z,800
2017-07-23T07:28:22.791Z,736
2017-07-23T07:29:23.367Z,692
2017-07-23T07:30:23.945Z,752
2017-07-23T07:31:24.525Z,652
2017-07-23T07:32:25.102Z,744
2017-07-23T07:33:25.692Z,664
2017-07-23T07:34:26.270Z,604
2017-07-23T07:35:26.847Z,600
2017-07-23T07:36:27.437Z,560
2017-07-23T07:37:28.017Z,536
2017-07-23T07:38:28.607Z,532
2017-07-23T07:39:29.185Z,516
2017-07-23T07:40:29.764Z,512
2017-07-23T07:41:30.354Z,504
2017-07-23T07:42:30.918Z,496
2017-07-23T07:43:31.511Z,500
2017-07-23T07:44:32.088Z,472
2017-07-23T07:45:32.678Z,468
2017-07-23T07:46:33.256Z,464
2017-07-23T07:47:33.836Z,456
2017-07-23T07:48:34.414Z,444
2017-07-23T07:49:35.005Z,436
2017-07-23T07:50:35.583Z,408
2017-07-23T07:51:36.159Z,400
2017-07-23T07:52:36.740Z,388
2017-07-23T07:53:37.317Z,392
2017-07-23T07:54:37.896Z,404
2017-07-23T07:55:38.475Z,400
2017-07-23T07:56:39.052Z,452
2017-07-23T07:57:39.629Z,392
2017-07-23T07:58:40.208Z,388
2017-07-23T07:59:40.797Z,508
2017-07-23T08:00:41.375Z,624
2017-07-23T08:01:41.952Z,520
2017-07-23T08:02:42.531Z,568
2017-07-23T08:03:43.108Z,424
2017-07-23T08:04:43.692Z,412
2017-07-23T08:05:44.267Z,644
2017-07-23T08:06:44.845Z,752
2017-07-23T08:07:45.425Z,756
2017-07-23T08:08:46.003Z,744
2017-07-23T08:09:46.584Z,744
2017-07-23T08:10:47.173Z,764
2017-07-23T08:11:47.749Z,764
2017-07-23T08:12:48.329Z,768
2017-07-23T08:13:48.906Z,772
2017-07-23T08:14:49.483Z,780
2017-07-23T08:15:50.060Z,780
2017-07-23T08:16:50.649Z,780
2017-07-23T08:17:51.242Z,784
2017-07-23T08:18:51.829Z,784
2017-07-23T08:19:52.408Z,784
2017-07-23T08:20:52.989Z,788
2017-07-23T08:21:53.568Z,792
2017-07-23T08:22:54.146Z,792
2017-07-23T08:23:54.723Z,796
2017-07-23T08:24:55.301Z,816
2017-07-23T08:25:55.881Z,812
2017-07-23T08:26:56.460Z,840
2017-07-23T08:27:57.039Z,844
2017-07-23T08:28:57.617Z,868
2017-07-23T08:29:58.194Z,900
2017-07-23T08:30:58.774Z,844
2017-07-23T08:31:59.352Z,948
2017-07-23T08:32:59.931Z,496
2017-07-23T08:34:00.512Z,976
2017-07-23T08:35:01.090Z,996
2017-07-23T08:36:01.670Z,1016
2017-07-23T08:37:02.249Z,1076
2017-07-23T08:38:02.831Z,1124
2017-07-23T08:39:03.409Z,1108
2017-07-23T08:40:03.989Z,1124
2017-07-23T08:41:04.579Z,1232
2017-07-23T08:42:05.158Z,688
2017-07-23T08:43:05.737Z,644
2017-07-23T08:44:06.316Z,704
2017-07-23T08:45:06.897Z,760
2017-07-23T08:46:07.474Z,612
2017-07-23T08:47:08.055Z,752
2017-07-23T08:48:08.635Z,1272
2017-07-23T08:49:09.227Z,1276
2017-07-23T08:50:09.811Z,1240
2017-07-23T08:51:10.384Z,1236
2017-07-23T08:52:10.964Z,1260
2017-07-23T08:53:11.544Z,1292
2017-07-23T08:54:12.125Z,1308
2017-07-23T08:55:12.704Z,772
2017-07-23T08:56:13.283Z,784
2017-07-23T08:57:13.863Z,1188
2017-07-23T08:58:14.442Z,976
2017-07-23T08:59:15.023Z,1244
2017-07-23T09:00:15.603Z,748
2017-07-23T09:01:16.183Z,652
2017-07-23T09:02:16.761Z,1068
2017-07-23T09:03:17.343Z,1052
2017-07-23T09:04:17.926Z,1080
2017-07-23T09:05:18.505Z,1076
2017-07-23T09:06:19.085Z,1076
2017-07-23T09:07:19.665Z,1092
2017-07-23T09:08:20.247Z,1120
2017-07-23T09:09:20.840Z,1140
2017-07-23T09:10:21.419Z,1132
2017-07-23T09:11:22.000Z,1084
2017-07-23T09:12:22.580Z,1084
2017-07-23T09:13:23.158Z,936
2017-07-23T09:14:23.740Z,1072
2017-07-23T09:15:24.327Z,1076
2017-07-23T09:16:24.901Z,616
2017-07-23T09:17:25.479Z,1088
2017-07-23T09:18:26.059Z,1068
2017-07-23T09:19:26.639Z,1028
2017-07-23T09:20:27.220Z,1036
2017-07-23T09:21:27.801Z,536
2017-07-23T09:22:28.380Z,536
2017-07-23T09:23:28.958Z,524
2017-07-23T09:24:29.537Z,548
2017-07-23T09:25:30.116Z,592
2017-07-23T09:26:30.698Z,636
2017-07-23T09:27:31.277Z,1092
2017-07-23T09:28:31.858Z,1244
2017-07-23T09:29:32.439Z,1256
2017-07-23T09:30:33.020Z,1244
2017-07-23T09:31:33.601Z,1224
2017-07-23T09:32:34.182Z,1196
2017-07-23T09:33:34.762Z,712
2017-07-23T09:34:35.340Z,1252
2017-07-23T09:35:35.920Z,992
2017-07-23T09:36:36.500Z,1228
2017-07-23T09:37:37.080Z,736
2017-07-23T09:38:37.664Z,1076
2017-07-23T09:39:38.250Z,1052
2017-07-23T09:40:38.831Z,772
2017-07-23T09:41:39.422Z,744
2017-07-23T09:42:40.006Z,1136
2017-07-23T09:43:40.586Z,1156
2017-07-23T09:44:41.165Z,1236
2017-07-23T09:45:41.746Z,1300
2017-07-23T09:46:42.327Z,1280
2017-07-23T09:47:42.913Z,1052
2017-07-23T09:48:43.491Z,1160
2017-07-23T09:49:44.069Z,888
2017-07-23T09:50:44.652Z,1356
2017-07-23T09:51:45.232Z,796
2017-07-23T09:52:45.814Z,1204
2017-07-23T09:53:46.406Z,704
2017-07-23T09:54:46.985Z,816
2017-07-23T09:55:47.567Z,1196
2017-07-23T09:56:48.147Z,632
2017-07-23T09:57:48.738Z,584
2017-07-23T09:58:49.318Z,524
2017-07-23T09:59:49.896Z,472
2017-07-23T10:00:50.479Z,488
2017-07-23T10:01:51.066Z,572
2017-07-23T10:02:51.650Z,676
2017-07-23T10:03:52.238Z,792
2017-07-23T10:04:52.819Z,604
2017-07-23T10:05:53.399Z,1036
2017-07-23T10:06:53.977Z,572
2017-07-23T10:07:54.558Z,536
2017-07-23T10:08:55.141Z,524
2017-07-23T10:09:55.721Z,568
2017-07-23T10:10:56.299Z,624
2017-07-23T10:11:56.880Z,636
2017-07-23T10:12:57.459Z,632
2017-07-23T10:13:58.038Z,676
2017-07-23T10:14:58.623Z,688
2017-07-23T10:15:59.199Z,704
2017-07-23T10:16:59.780Z,720
2017-07-23T10:18:00.359Z,700
2017-07-23T10:19:00.939Z,668
2017-07-23T10:20:01.517Z,660
2017-07-23T10:21:02.097Z,648
2017-07-23T10:22:02.679Z,644
2017-07-23T10:23:03.257Z,672
2017-07-23T10:24:03.838Z,696
2017-07-23T10:25:04.417Z,732
2017-07-23T10:26:04.996Z,756
2017-07-23T10:27:05.576Z,772
2017-07-23T10:28:06.157Z,776
2017-07-23T10:29:06.740Z,1300
2017-07-23T10:30:07.321Z,1276
2017-07-23T10:31:07.900Z,1276
2017-07-23T10:32:08.482Z,1244
2017-07-23T10:33:09.061Z,1228
2017-07-23T10:34:09.642Z,1228
2017-07-23T10:35:10.221Z,1228
2017-07-23T10:36:10.802Z,1292
2017-07-23T10:37:11.384Z,1332
2017-07-23T10:38:11.966Z,1316
2017-07-23T10:39:12.558Z,804
2017-07-23T10:40:13.142Z,772
2017-07-23T10:41:13.718Z,720
2017-07-23T10:42:14.299Z,672
2017-07-23T10:43:14.878Z,632
2017-07-23T10:44:15.458Z,576
2017-07-23T10:45:16.038Z,500
2017-07-23T10:46:16.630Z,460
2017-07-23T10:47:17.211Z,508
2017-07-23T10:48:17.792Z,608
2017-07-23T10:49:18.372Z,680
2017-07-23T10:50:18.952Z,696
2017-07-23T10:51:19.532Z,688
2017-07-23T10:52:20.111Z,672
2017-07-23T10:53:20.743Z,612
2017-07-23T10:54:21.322Z,512
2017-07-23T10:55:21.901Z,424
2017-07-23T10:56:22.480Z,360
2017-07-23T10:57:23.062Z,316
2017-07-23T10:58:23.640Z,284
2017-07-23T10:59:24.220Z,276
2017-07-23T11:00:24.810Z,284
2017-07-23T11:01:25.390Z,300
2017-07-23T11:02:25.970Z,332
2017-07-23T11:03:26.552Z,392
2017-07-23T11:04:27.132Z,480
2017-07-23T11:05:27.711Z,572
2017-07-23T11:06:28.302Z,672
2017-07-23T11:07:28.880Z,800
2017-07-23T11:08:29.460Z,856
2017-07-23T11:09:30.040Z,840
2017-07-23T11:10:30.620Z,824
2017-07-23T11:11:31.202Z,804
2017-07-23T11:12:31.781Z,804
2017-07-23T11:13:32.360Z,800
2017-07-23T11:14:32.940Z,800
2017-07-23T11:15:33.522Z,772
2017-07-23T11:16:34.110Z,740
2017-07-23T11:17:34.690Z,652
2017-07-23T11:18:35.269Z,532
2017-07-23T11:19:35.851Z,488
2017-07-23T11:20:36.429Z,512
2017-07-23T11:21:37.009Z,588
2017-07-23T11:22:37.588Z,676
2017-07-23T11:23:38.167Z,752
2017-07-23T11:24:38.758Z,812
2017-07-23T11:25:39.338Z,872
2017-07-23T11:26:39.917Z,948
2017-07-23T11:27:40.498Z,1032
2017-07-23T11:28:41.079Z,1016
2017-07-23T11:29:41.662Z,1020
2017-07-23T11:30:42.242Z,1036
2017-07-23T11:31:42.822Z,1044
2017-07-23T11:32:43.403Z,1044
2017-07-23T11:33:43.984Z,1052
2017-07-23T11:34:44.565Z,1064
2017-07-23T11:35:45.143Z,1072
2017-07-23T11:36:45.725Z,1080
2017-07-23T11:37:46.308Z,1096
2017-07-23T11:38:46.887Z,1104
2017-07-23T11:39:47.469Z,1108
2017-07-23T11:40:48.047Z,1140
2017-07-23T11:41:48.626Z,1404
2017-07-23T11:42:49.209Z,1432
2017-07-23T11:43:49.789Z,1300
2017-07-23T11:44:50.371Z,1596
2017-07-23T11:45:50.951Z,1700
2017-07-23T11:46:51.532Z,1236
2017-07-23T11:47:52.117Z,1468
2017-07-23T11:48:52.692Z,1216
2017-07-23T11:49:53.285Z,1172
2017-07-23T11:50:53.868Z,1144
2017-07-23T11:51:54.449Z,1176
2017-07-23T11:52:55.030Z,1308
2017-07-23T11:53:55.613Z,1216
2017-07-23T11:54:56.195Z,1256
2017-07-23T11:55:56.774Z,1288
2017-07-23T11:56:57.354Z,1244
2017-07-23T11:57:57.935Z,1352
2017-07-23T11:58:58.518Z,1076
2017-07-23T11:59:59.098Z,1064
2017-07-23T12:00:59.679Z,1048
2017-07-23T12:02:00.259Z,920
2017-07-23T12:03:00.839Z,1128
2017-07-23T12:04:01.420Z,916
2017-07-23T12:05:02.001Z,856
2017-07-23T12:06:02.580Z,936
2017-07-23T12:07:03.161Z,1164
2017-07-23T12:08:03.743Z,1560
2017-07-23T12:09:04.330Z,1316
2017-07-23T12:10:04.919Z,1336
2017-07-23T12:11:05.498Z,1448
2017-07-23T12:12:06.080Z,1184
2017-07-23T12:13:06.661Z,1120
2017-07-23T12:14:07.241Z,1424
2017-07-23T12:15:07.825Z,1568
2017-07-23T12:16:08.404Z,1508
2017-07-23T12:17:08.986Z,1080
2017-07-23T12:18:09.567Z,1000
2017-07-23T12:19:10.149Z,1092
2017-07-23T12:20:10.732Z,1064
2017-07-23T12:21:11.317Z,1096
2017-07-23T12:22:11.903Z,1128
2017-07-23T12:23:12.487Z,1152
2017-07-23T12:24:13.067Z,1384
2017-07-23T12:25:13.649Z,1456
2017-07-23T12:26:14.231Z,1920
2017-07-23T12:27:14.812Z,1956
2017-07-23T12:28:15.393Z,1840
2017-07-23T12:29:15.976Z,1472
2017-07-23T12:30:16.571Z,1336
2017-07-23T12:31:17.146Z,1284
2017-07-23T12:32:17.726Z,1316
2017-07-23T12:33:18.306Z,1620
2017-07-23T12:34:18.889Z,1508
2017-07-23T12:35:19.469Z,1184
2017-07-23T12:36:20.051Z,1164
2017-07-23T12:37:20.632Z,1044
2017-07-23T12:38:21.213Z,1040
2017-07-23T12:39:21.794Z,1156
2017-07-23T12:40:22.377Z,1100
2017-07-23T12:41:22.957Z,1048
2017-07-23T12:42:23.536Z,940
2017-07-23T12:43:24.115Z,908
2017-07-23T12:44:24.695Z,764
2017-07-23T12:45:25.275Z,776
2017-07-23T12:46:25.858Z,876
2017-07-23T12:47:26.437Z,848
2017-07-23T12:48:27.029Z,796
2017-07-23T12:49:27.610Z,768
2017-07-23T12:50:28.192Z,716
2017-07-23T12:51:28.771Z,676
2017-07-23T12:52:29.351Z,588
2017-07-23T12:53:29.930Z,496
2017-07-23T12:54:30.511Z,432
2017-07-23T12:55:31.090Z,364
2017-07-23T12:56:31.671Z,312
2017-07-23T12:57:32.251Z,288
2017-07-23T12:58:32.832Z,292
2017-07-23T12:59:33.412Z,324
2017-07-23T13:00:33.994Z,384
2017-07-23T13:01:34.576Z,464
2017-07-23T13:02:35.156Z,544
2017-07-23T13:03:35.737Z,608
2017-07-23T13:04:36.317Z,672
2017-07-23T13:05:36.898Z,728
2017-07-23T13:06:37.488Z,792
2017-07-23T13:07:38.068Z,872
2017-07-23T13:08:38.646Z,964
2017-07-23T13:09:39.229Z,1068
2017-07-23T13:10:39.810Z,1164
2017-07-23T13:11:40.391Z,1204
2017-07-23T13:12:40.972Z,1360
2017-07-23T13:13:41.552Z,1700
2017-07-23T13:14:42.135Z,1664
2017-07-23T13:15:42.716Z,1636
2017-07-23T13:16:43.297Z,1612
2017-07-23T13:17:43.878Z,1536
2017-07-23T13:18:44.458Z,1512
2017-07-23T13:19:45.040Z,1484
2017-07-23T13:20:45.622Z,1456
2017-07-23T13:21:46.215Z,1420
2017-07-23T13:22:46.797Z,1440
2017-07-23T13:23:47.376Z,844
2017-07-23T13:24:47.958Z,828
2017-07-23T13:25:48.548Z,868
2017-07-23T13:26:49.457Z,892
2017-07-23T13:27:49.950Z,900
2017-07-23T13:28:50.531Z,912
2017-07-23T13:29:51.112Z,932
2017-07-23T13:30:51.694Z,1520
2017-07-23T13:31:52.274Z,892
2017-07-23T13:32:52.865Z,832
2017-07-23T13:33:53.445Z,788
2017-07-23T13:34:54.037Z,752
2017-07-23T13:35:54.617Z,728
2017-07-23T13:36:55.209Z,716
2017-07-23T13:37:55.789Z,732
2017-07-23T13:38:56.370Z,760
2017-07-23T13:39:56.949Z,796
2017-07-23T13:40:57.532Z,892
2017-07-23T13:41:58.111Z,764
2017-07-23T13:42:58.703Z,732
2017-07-23T13:43:59.282Z,704
2017-07-23T13:44:59.864Z,652
2017-07-23T13:46:00.448Z,612
2017-07-23T13:47:01.029Z,568
2017-07-23T13:48:01.612Z,516
2017-07-23T13:49:02.190Z,484
2017-07-23T13:50:02.780Z,480
2017-07-23T13:51:03.358Z,464
2017-07-23T13:52:03.938Z,464
2017-07-23T13:53:04.519Z,500
2017-07-23T13:54:05.100Z,548
2017-07-23T13:55:05.693Z,596
2017-07-23T13:56:06.274Z,652
2017-07-23T13:57:06.853Z,712
2017-07-23T13:58:07.432Z,800
2017-07-23T13:59:08.028Z,908
2017-07-23T14:00:08.593Z,1040
2017-07-23T14:01:09.175Z,1164
2017-07-23T14:02:09.769Z,1264
2017-07-23T14:03:10.347Z,1472
2017-07-23T14:04:10.932Z,1596
2017-07-23T14:05:11.510Z,1808
2017-07-23T14:06:12.091Z,1612